createdAt,value
2018-09-24T17:46:31.046Z,8.90
2018-09-24T17:49:06.454Z,8.80
2018-09-24T17:51:41.565Z,8.70
2018-09-24T17:54:16.880Z,8.70
2018-09-24T17:56:52.240Z,8.70
2018-09-24T17:59:27.500Z,8.50
2018-09-24T18:02:02.913Z,8.50
2018-09-24T18:04:38.094Z,8.50
2018-09-24T18:07:13.433Z,8.50
2018-09-24T18:09:48.815Z,8.40
2018-09-24T18:12:24.046Z,8.30
2018-09-24T18:14:59.298Z,8.30
2018-09-24T18:17:34.607Z,8.30
2018-09-24T18:20:09.953Z,8.20
2018-09-24T18:22:45.264Z,8.20
2018-09-24T18:25:20.419Z,8.20
2018-09-24T18:27:55.750Z,8.30
2018-09-24T18:30:30.969Z,8.40
2018-09-24T18:33:06.170Z,8.50
2018-09-24T18:35:41.294Z,8.50
2018-09-24T18:38:16.695Z,8.50
2018-09-24T18:40:51.999Z,8.40
2018-09-24T18:43:27.495Z,8.40
2018-09-24T18:46:02.642Z,8.40
2018-09-24T18:48:38.965Z,8.40
2018-09-24T18:51:14.533Z,8.40
2018-09-24T18:53:49.917Z,8.30
2018-09-24T18:56:25.280Z,8.40
2018-09-24T18:59:00.826Z,8.50
2018-09-24T19:01:36.085Z,8.40
2018-09-24T19:04:12.044Z,8.30
2018-09-24T19:06:47.415Z,8.20
2018-09-24T19:09:22.806Z,8.20
2018-09-24T19:11:58.076Z,8.30
2018-09-24T19:14:33.505Z,8.40
2018-09-24T19:17:08.692Z,8.50
2018-09-24T19:19:43.840Z,8.50
2018-09-24T19:22:19.236Z,8.50
2018-09-24T19:24:54.758Z,8.40
2018-09-24T19:27:29.920Z,8.50
2018-09-24T19:30:06.568Z,8.50
2018-09-24T19:32:41.882Z,8.40
2018-09-24T19:35:17.145Z,8.50
2018-09-24T19:37:52.549Z,8.40
2018-09-24T19:40:29.074Z,8.40
2018-09-24T19:43:04.790Z,8.40
2018-09-24T19:45:40.116Z,8.30
2018-09-24T19:48:15.122Z,8.30
2018-09-24T19:50:50.430Z,8.20
2018-09-24T19:53:25.663Z,8.10
2018-09-24T19:56:01.035Z,8.10
2018-09-24T19:58:36.414Z,8.00
2018-09-24T20:01:12.874Z,8.00
2018-09-24T20:03:48.216Z,7.90
2018-09-24T20:06:23.680Z,7.90
2018-09-24T20:08:58.946Z,7.90
2018-09-24T20:11:34.417Z,7.90
2018-09-24T20:14:09.466Z,7.80
2018-09-24T20:16:44.804Z,7.70
2018-09-24T20:19:19.961Z,7.60
2018-09-24T20:21:56.286Z,7.60
2018-09-24T20:24:31.595Z,7.50
2018-09-24T20:27:06.934Z,7.50
2018-09-24T20:29:42.403Z,7.40
2018-09-24T20:32:17.648Z,7.30
2018-09-24T20:34:52.972Z,7.40
2018-09-24T20:37:28.737Z,7.40
2018-09-24T20:40:04.421Z,7.40
2018-09-24T20:42:40.446Z,7.40
2018-09-24T20:45:16.140Z,7.30
2018-09-24T20:47:51.380Z,7.30
2018-09-24T20:50:28.749Z,7.20
2018-09-24T20:53:03.956Z,7.30
2018-09-24T20:55:39.123Z,7.30
2018-09-24T20:58:14.821Z,7.40
2018-09-24T21:00:50.365Z,7.40
2018-09-24T21:03:25.736Z,7.30
2018-09-24T21:06:01.008Z,7.30
2018-09-24T21:08:36.461Z,7.30
2018-09-24T21:11:11.672Z,7.20
2018-09-24T21:13:46.910Z,7.20
2018-09-24T21:16:22.415Z,7.20
2018-09-24T21:18:57.693Z,7.20
2018-09-24T21:21:33.000Z,7.10
2018-09-24T21:24:08.533Z,7.10
2018-09-24T21:26:44.394Z,7.10
2018-09-24T21:29:22.640Z,7.00
2018-09-24T21:31:58.038Z,7.00
2018-09-24T21:34:33.283Z,7.00
2018-09-24T21:37:08.849Z,7.00
2018-09-24T21:39:44.099Z,7.00
2018-09-24T21:42:19.567Z,7.00
2018-09-24T21:44:54.765Z,7.00
2018-09-24T21:47:29.865Z,7.20
2018-09-24T21:50:05.154Z,7.30
2018-09-24T21:52:40.621Z,7.30
2018-09-24T21:55:16.295Z,7.40
2018-09-24T21:57:53.130Z,7.50
2018-09-24T22:00:28.554Z,7.50
2018-09-24T22:03:03.866Z,7.60
2018-09-24T22:05:39.102Z,7.60
2018-09-24T22:08:14.291Z,7.80
2018-09-24T22:10:49.548Z,7.80
2018-09-24T22:13:24.687Z,7.70
2018-09-24T22:16:00.108Z,7.70
2018-09-24T22:18:35.551Z,7.70
2018-09-24T22:21:10.663Z,7.60
2018-09-24T22:23:46.036Z,7.50
2018-09-24T22:26:21.218Z,7.40
2018-09-24T22:28:56.423Z,7.30
2018-09-24T22:31:31.706Z,7.20
2018-09-24T22:34:08.276Z,7.20
2018-09-24T22:36:44.372Z,7.20
2018-09-24T22:39:19.650Z,7.10
2018-09-24T22:41:54.764Z,7.20
2018-09-24T22:44:30.212Z,7.20
2018-09-24T22:47:05.508Z,7.20
2018-09-24T22:49:40.969Z,7.20
2018-09-24T22:52:16.262Z,7.20
2018-09-24T22:54:51.632Z,7.20
2018-09-24T22:57:26.683Z,7.20
2018-09-24T23:00:01.856Z,7.20
2018-09-24T23:02:36.966Z,7.10
2018-09-24T23:05:12.352Z,7.10
2018-09-24T23:07:47.334Z,7.00
2018-09-24T23:10:22.557Z,7.00
2018-09-24T23:12:57.773Z,6.90
2018-09-24T23:15:32.904Z,7.00
2018-09-24T23:18:08.567Z,7.00
2018-09-24T23:20:43.709Z,7.00
2018-09-24T23:23:18.762Z,6.90
2018-09-24T23:25:54.044Z,6.90
2018-09-24T23:28:29.208Z,6.80
2018-09-24T23:31:04.525Z,6.80
2018-09-24T23:33:39.964Z,7.00
2018-09-24T23:36:15.154Z,7.00
2018-09-24T23:38:50.389Z,6.90
2018-09-24T23:41:25.690Z,6.90
2018-09-24T23:44:02.327Z,6.90
2018-09-24T23:46:37.504Z,6.90
2018-09-24T23:49:12.682Z,6.90
2018-09-24T23:51:47.920Z,6.90
2018-09-24T23:54:23.164Z,6.90
2018-09-24T23:56:58.404Z,6.90
2018-09-24T23:59:33.649Z,6.90
